Kezdőlap
METAR-TAF:

METAR-TAF

Repülőterek :

Pottstown Limerick Airport

Pottstown, Pennsylvania, Amerikai Egyesült Államok

földrajzi szélesség: 40-14-18N, földrajzi hosszúság: 075-33-26W, magasság: 89 m

Jelenlegi meteorológiai megfigyelések

A jelentés 54 perccel ezelõtt készült, 15:54 UTC
Különbözõ irányokból fújó szél 4 kt
Hőmérséklet 9°C
Páratartalom 23%
Légköri nyomás 1024 hPa
Látótávolság: 14.5 km
Derült ég

METAR: KPTW 231554Z AUTO VRB04KT 9SM CLR 09/M11 A3024 RMK AO2 SLP239 T00891111

Idő: 11:48 (16:48 UTC)


TAF: hiányzik

Meteorológiai megfigyelések és előrejelzések több, mint 4000 repülőtéren (METAR és TAF jelentéseket).

A térképen piros és sárga pontok jelzik az elérhető meteorológiai állomásokat.

Mozgassa az egeret a pont fölött, hogy megjelenjen az állomás neve.

Azután kattintson az időjárási megfigyelések és előrejelzések megtekintéséhez.

A térkép megváltoztatása: kattintson a fekete keresztel jelölt zöld gombra ráközelítéshez, a vonallal jelölt zöld gombra távolításhoz, vagy a zöld nyilakra a szomszédos térképek eléréséhez.


METAR-TAF: